sensor_id;sensor_type;location;lat;lon;timestamp;P1;durP1;ratioP1;P2;durP2;ratioP2
67508;SDS011;54354;44.724;11.284;2023-03-23T00:02:15;25.35;;;22.52;;
67508;SDS011;54354;44.724;11.284;2023-03-23T00:04:41;26.25;;;23.45;;
67508;SDS011;54354;44.724;11.284;2023-03-23T00:07:07;26.17;;;22.88;;
67508;SDS011;54354;44.724;11.284;2023-03-23T00:09:33;26.15;;;23.45;;
67508;SDS011;54354;44.724;11.284;2023-03-23T00:11:59;26.10;;;22.55;;
67508;SDS011;54354;44.724;11.284;2023-03-23T00:17:06;26.27;;;21.75;;
67508;SDS011;54354;44.724;11.284;2023-03-23T00:19:35;30.15;;;23.08;;
67508;SDS011;54354;44.724;11.284;2023-03-23T00:22:11;26.00;;;23.02;;
67508;SDS011;54354;44.724;11.284;2023-03-23T00:24:40;26.48;;;22.63;;
67508;SDS011;54354;44.724;11.284;2023-03-23T00:27:06;26.27;;;23.55;;
67508;SDS011;54354;44.724;11.284;2023-03-23T00:29:34;28.88;;;25.27;;
67508;SDS011;54354;44.724;11.284;2023-03-23T00:32:00;31.67;;;27.20;;
67508;SDS011;54354;44.724;11.284;2023-03-23T00:36:58;28.73;;;25.73;;
67508;SDS011;54354;44.724;11.284;2023-03-23T00:39:27;28.83;;;25.85;;
67508;SDS011;54354;44.724;11.284;2023-03-23T00:41:53;35.30;;;27.43;;
67508;SDS011;54354;44.724;11.284;2023-03-23T00:44:26;28.13;;;25.13;;
67508;SDS011;54354;44.724;11.284;2023-03-23T00:46:57;29.20;;;25.88;;
67508;SDS011;54354;44.724;11.284;2023-03-23T00:49:23;27.30;;;24.15;;
67508;SDS011;54354;44.724;11.284;2023-03-23T00:51:54;29.50;;;25.08;;
67508;SDS011;54354;44.724;11.284;2023-03-23T00:54:22;27.85;;;24.88;;
67508;SDS011;54354;44.724;11.284;2023-03-23T00:56:48;28.60;;;24.23;;
67508;SDS011;54354;44.724;11.284;2023-03-23T00:59:15;28.35;;;25.25;;
67508;SDS011;54354;44.724;11.284;2023-03-23T01:01:40;27.85;;;23.95;;
67508;SDS011;54354;44.724;11.284;2023-03-23T01:04:06;28.05;;;24.50;;
67508;SDS011;54354;44.724;11.284;2023-03-23T01:06:33;27.48;;;24.30;;
67508;SDS011;54354;44.724;11.284;2023-03-23T01:09:04;28.00;;;25.02;;
67508;SDS011;54354;44.724;11.284;2023-03-23T01:11:31;28.40;;;25.50;;
67508;SDS011;54354;44.724;11.284;2023-03-23T01:13:57;32.13;;;26.10;;
67508;SDS011;54354;44.724;11.284;2023-03-23T01:16:23;34.00;;;26.95;;
67508;SDS011;54354;44.724;11.284;2023-03-23T01:18:49;30.23;;;27.15;;
67508;SDS011;54354;44.724;11.284;2023-03-23T01:21:16;31.40;;;27.73;;
67508;SDS011;54354;44.724;11.284;2023-03-23T01:23:43;34.25;;;29.85;;
67508;SDS011;54354;44.724;11.284;2023-03-23T01:26:10;32.67;;;27.98;;
67508;SDS011;54354;44.724;11.284;2023-03-23T01:28:37;34.50;;;27.77;;
67508;SDS011;54354;44.724;11.284;2023-03-23T01:31:04;33.25;;;28.08;;
67508;SDS011;54354;44.724;11.284;2023-03-23T01:33:32;30.23;;;27.20;;
67508;SDS011;54354;44.724;11.284;2023-03-23T01:36:04;31.83;;;27.00;;
67508;SDS011;54354;44.724;11.284;2023-03-23T01:38:32;32.00;;;26.77;;
67508;SDS011;54354;44.724;11.284;2023-03-23T01:40:58;31.05;;;26.77;;
67508;SDS011;54354;44.724;11.284;2023-03-23T01:43:24;31.95;;;26.30;;
67508;SDS011;54354;44.724;11.284;2023-03-23T01:45:50;29.92;;;25.10;;
67508;SDS011;54354;44.724;11.284;2023-03-23T01:48:23;29.77;;;26.63;;
67508;SDS011;54354;44.724;11.284;2023-03-23T01:53:36;28.23;;;23.65;;
67508;SDS011;54354;44.724;11.284;2023-03-23T01:56:03;26.20;;;23.45;;
67508;SDS011;54354;44.724;11.284;2023-03-23T01:58:31;30.58;;;24.67;;
67508;SDS011;54354;44.724;11.284;2023-03-23T02:01:00;29.10;;;25.38;;
67508;SDS011;54354;44.724;11.284;2023-03-23T02:03:28;28.70;;;25.67;;
67508;SDS011;54354;44.724;11.284;2023-03-23T02:05:57;27.67;;;23.10;;
67508;SDS011;54354;44.724;11.284;2023-03-23T02:08:54;32.03;;;23.92;;
67508;SDS011;54354;44.724;11.284;2023-03-23T02:11:21;29.08;;;23.88;;
67508;SDS011;54354;44.724;11.284;2023-03-23T02:13:48;27.20;;;23.88;;
67508;SDS011;54354;44.724;11.284;2023-03-23T02:18:45;26.80;;;24.08;;
67508;SDS011;54354;44.724;11.284;2023-03-23T02:26:52;31.60;;;24.58;;
67508;SDS011;54354;44.724;11.284;2023-03-23T02:29:43;27.13;;;24.13;;
67508;SDS011;54354;44.724;11.284;2023-03-23T02:35:11;26.77;;;23.60;;
67508;SDS011;54354;44.724;11.284;2023-03-23T02:37:50;28.15;;;22.77;;
67508;SDS011;54354;44.724;11.284;2023-03-23T02:40:20;27.25;;;23.77;;
67508;SDS011;54354;44.724;11.284;2023-03-23T02:45:17;27.35;;;23.58;;
67508;SDS011;54354;44.724;11.284;2023-03-23T02:47:45;28.92;;;23.73;;
67508;SDS011;54354;44.724;11.284;2023-03-23T02:50:14;29.45;;;24.33;;
67508;SDS011;54354;44.724;11.284;2023-03-23T02:52:42;25.85;;;22.10;;
67508;SDS011;54354;44.724;11.284;2023-03-23T02:55:09;24.20;;;21.02;;
67508;SDS011;54354;44.724;11.284;2023-03-23T02:57:38;23.77;;;19.92;;
67508;SDS011;54354;44.724;11.284;2023-03-23T03:00:05;19.30;;;17.30;;
67508;SDS011;54354;44.724;11.284;2023-03-23T03:02:36;23.35;;;18.38;;
67508;SDS011;54354;44.724;11.284;2023-03-23T03:07:40;19.40;;;17.30;;
67508;SDS011;54354;44.724;11.284;2023-03-23T03:10:16;21.52;;;19.13;;
67508;SDS011;54354;44.724;11.284;2023-03-23T03:13:02;22.65;;;19.88;;
67508;SDS011;54354;44.724;11.284;2023-03-23T03:15:37;24.77;;;20.83;;
67508;SDS011;54354;44.724;11.284;2023-03-23T03:18:14;28.02;;;21.55;;
67508;SDS011;54354;44.724;11.284;2023-03-23T03:20:49;21.15;;;18.95;;
67508;SDS011;54354;44.724;11.284;2023-03-23T03:23:21;23.65;;;20.17;;
67508;SDS011;54354;44.724;11.284;2023-03-23T03:25:51;23.85;;;20.08;;
67508;SDS011;54354;44.724;11.284;2023-03-23T03:28:27;23.02;;;18.42;;
67508;SDS011;54354;44.724;11.284;2023-03-23T03:30:54;23.00;;;20.00;;
67508;SDS011;54354;44.724;11.284;2023-03-23T03:33:25;21.13;;;18.95;;
67508;SDS011;54354;44.724;11.284;2023-03-23T03:35:54;24.65;;;19.77;;
67508;SDS011;54354;44.724;11.284;2023-03-23T03:38:21;21.13;;;18.73;;
67508;SDS011;54354;44.724;11.284;2023-03-23T03:40:49;23.85;;;19.98;;
67508;SDS011;54354;44.724;11.284;2023-03-23T03:43:15;21.48;;;19.17;;
67508;SDS011;54354;44.724;11.284;2023-03-23T03:45:41;22.52;;;20.17;;
67508;SDS011;54354;44.724;11.284;2023-03-23T03:48:07;22.23;;;19.85;;
67508;SDS011;54354;44.724;11.284;2023-03-23T03:50:33;24.75;;;19.75;;
67508;SDS011;54354;44.724;11.284;2023-03-23T03:52:58;21.92;;;19.73;;
67508;SDS011;54354;44.724;11.284;2023-03-23T03:55:24;25.00;;;19.55;;
67508;SDS011;54354;44.724;11.284;2023-03-23T03:57:50;20.95;;;18.67;;
67508;SDS011;54354;44.724;11.284;2023-03-23T04:00:33;20.52;;;18.45;;
67508;SDS011;54354;44.724;11.284;2023-03-23T04:02:59;20.40;;;18.10;;
67508;SDS011;54354;44.724;11.284;2023-03-23T04:05:57;19.00;;;17.02;;
67508;SDS011;54354;44.724;11.284;2023-03-23T04:08:24;21.08;;;16.90;;
67508;SDS011;54354;44.724;11.284;2023-03-23T04:10:52;21.45;;;17.30;;
67508;SDS011;54354;44.724;11.284;2023-03-23T04:13:18;22.77;;;17.63;;
67508;SDS011;54354;44.724;11.284;2023-03-23T04:16:02;19.70;;;17.48;;
67508;SDS011;54354;44.724;11.284;2023-03-23T04:18:31;19.70;;;17.63;;
67508;SDS011;54354;44.724;11.284;2023-03-23T04:21:00;18.90;;;16.75;;
67508;SDS011;54354;44.724;11.284;2023-03-23T04:23:28;22.42;;;17.05;;
67508;SDS011;54354;44.724;11.284;2023-03-23T04:26:00;20.52;;;17.15;;
67508;SDS011;54354;44.724;11.284;2023-03-23T04:28:32;19.33;;;15.65;;
67508;SDS011;54354;44.724;11.284;2023-03-23T04:31:18;18.17;;;15.93;;
67508;SDS011;54354;44.724;11.284;2023-03-23T04:33:48;21.50;;;15.05;;
67508;SDS011;54354;44.724;11.284;2023-03-23T04:36:19;21.73;;;15.32;;
67508;SDS011;54354;44.724;11.284;2023-03-23T04:38:56;20.33;;;15.07;;
67508;SDS011;54354;44.724;11.284;2023-03-23T04:41:23;20.02;;;14.52;;
67508;SDS011;54354;44.724;11.284;2023-03-23T04:44:03;19.10;;;14.32;;
67508;SDS011;54354;44.724;11.284;2023-03-23T04:46:35;17.33;;;14.30;;
67508;SDS011;54354;44.724;11.284;2023-03-23T04:49:07;16.00;;;12.90;;
67508;SDS011;54354;44.724;11.284;2023-03-23T04:51:36;14.02;;;12.60;;
67508;SDS011;54354;44.724;11.284;2023-03-23T04:54:19;15.80;;;13.57;;
67508;SDS011;54354;44.724;11.284;2023-03-23T04:56:49;17.35;;;13.07;;
67508;SDS011;54354;44.724;11.284;2023-03-23T04:59:15;15.57;;;13.43;;
67508;SDS011;54354;44.724;11.284;2023-03-23T05:01:48;15.23;;;12.57;;
67508;SDS011;54354;44.724;11.284;2023-03-23T05:04:16;14.38;;;12.98;;
67508;SDS011;54354;44.724;11.284;2023-03-23T05:06:50;18.23;;;13.05;;
67508;SDS011;54354;44.724;11.284;2023-03-23T05:09:21;17.00;;;13.38;;
67508;SDS011;54354;44.724;11.284;2023-03-23T05:11:48;15.18;;;13.68;;
67508;SDS011;54354;44.724;11.284;2023-03-23T05:14:14;15.23;;;13.57;;
67508;SDS011;54354;44.724;11.284;2023-03-23T05:16:42;16.58;;;14.13;;
67508;SDS011;54354;44.724;11.284;2023-03-23T05:19:12;17.13;;;14.98;;
67508;SDS011;54354;44.724;11.284;2023-03-23T05:21:38;19.88;;;14.38;;
67508;SDS011;54354;44.724;11.284;2023-03-23T05:24:05;17.88;;;15.98;;
67508;SDS011;54354;44.724;11.284;2023-03-23T05:26:31;19.65;;;17.55;;
67508;SDS011;54354;44.724;11.284;2023-03-23T05:29:03;20.55;;;17.48;;
67508;SDS011;54354;44.724;11.284;2023-03-23T05:31:39;22.38;;;17.73;;
67508;SDS011;54354;44.724;11.284;2023-03-23T05:34:05;22.13;;;18.05;;
67508;SDS011;54354;44.724;11.284;2023-03-23T05:36:39;21.73;;;17.33;;
67508;SDS011;54354;44.724;11.284;2023-03-23T05:39:25;26.15;;;18.75;;
67508;SDS011;54354;44.724;11.284;2023-03-23T05:42:10;21.33;;;18.52;;
67508;SDS011;54354;44.724;11.284;2023-03-23T05:44:50;23.45;;;17.23;;
67508;SDS011;54354;44.724;11.284;2023-03-23T05:47:16;21.48;;;16.80;;
67508;SDS011;54354;44.724;11.284;2023-03-23T05:49:48;24.38;;;17.25;;
67508;SDS011;54354;44.724;11.284;2023-03-23T05:52:17;22.30;;;15.93;;
67508;SDS011;54354;44.724;11.284;2023-03-23T05:54:43;20.70;;;15.75;;
67508;SDS011;54354;44.724;11.284;2023-03-23T05:57:10;21.17;;;17.55;;
67508;SDS011;54354;44.724;11.284;2023-03-23T05:59:43;19.90;;;17.70;;
67508;SDS011;54354;44.724;11.284;2023-03-23T06:02:15;23.98;;;16.75;;
67508;SDS011;54354;44.724;11.284;2023-03-23T06:04:40;20.35;;;17.45;;
67508;SDS011;54354;44.724;11.284;2023-03-23T06:07:18;23.77;;;16.00;;
67508;SDS011;54354;44.724;11.284;2023-03-23T06:09:53;19.67;;;16.23;;
67508;SDS011;54354;44.724;11.284;2023-03-23T06:12:21;17.40;;;15.27;;
67508;SDS011;54354;44.724;11.284;2023-03-23T06:15:02;17.70;;;15.52;;
67508;SDS011;54354;44.724;11.284;2023-03-23T06:17:50;18.60;;;16.30;;
67508;SDS011;54354;44.724;11.284;2023-03-23T06:20:22;25.80;;;16.50;;
67508;SDS011;54354;44.724;11.284;2023-03-23T06:22:50;21.90;;;16.73;;
67508;SDS011;54354;44.724;11.284;2023-03-23T06:25:29;25.13;;;16.85;;
67508;SDS011;54354;44.724;11.284;2023-03-23T06:27:56;21.58;;;16.98;;
67508;SDS011;54354;44.724;11.284;2023-03-23T06:30:23;21.92;;;15.63;;
67508;SDS011;54354;44.724;11.284;2023-03-23T06:32:49;17.90;;;15.63;;
67508;SDS011;54354;44.724;11.284;2023-03-23T06:35:22;20.23;;;16.10;;
67508;SDS011;54354;44.724;11.284;2023-03-23T06:38:08;23.33;;;15.27;;
67508;SDS011;54354;44.724;11.284;2023-03-23T06:40:41;19.33;;;16.05;;
67508;SDS011;54354;44.724;11.284;2023-03-23T06:43:11;21.33;;;16.05;;
67508;SDS011;54354;44.724;11.284;2023-03-23T06:45:59;19.15;;;13.80;;
67508;SDS011;54354;44.724;11.284;2023-03-23T06:48:40;21.27;;;15.43;;
67508;SDS011;54354;44.724;11.284;2023-03-23T06:51:09;21.60;;;16.20;;
67508;SDS011;54354;44.724;11.284;2023-03-23T06:53:37;31.67;;;22.98;;
67508;SDS011;54354;44.724;11.284;2023-03-23T06:56:04;38.22;;;26.15;;
67508;SDS011;54354;44.724;11.284;2023-03-23T06:58:31;40.33;;;29.42;;
67508;SDS011;54354;44.724;11.284;2023-03-23T07:00:57;40.63;;;29.27;;
67508;SDS011;54354;44.724;11.284;2023-03-23T07:03:28;40.85;;;30.23;;
67508;SDS011;54354;44.724;11.284;2023-03-23T07:05:54;39.78;;;30.35;;
67508;SDS011;54354;44.724;11.284;2023-03-23T07:08:24;41.85;;;30.38;;
67508;SDS011;54354;44.724;11.284;2023-03-23T07:10:51;44.72;;;31.70;;
67508;SDS011;54354;44.724;11.284;2023-03-23T07:13:20;44.22;;;30.52;;
67508;SDS011;54354;44.724;11.284;2023-03-23T07:15:50;37.83;;;27.38;;
67508;SDS011;54354;44.724;11.284;2023-03-23T07:18:17;33.30;;;23.00;;
67508;SDS011;54354;44.724;11.284;2023-03-23T07:20:49;23.70;;;16.65;;
67508;SDS011;54354;44.724;11.284;2023-03-23T07:23:16;18.55;;;15.23;;
67508;SDS011;54354;44.724;11.284;2023-03-23T07:25:48;27.77;;;12.98;;
67508;SDS011;54354;44.724;11.284;2023-03-23T07:28:20;21.48;;;14.25;;
67508;SDS011;54354;44.724;11.284;2023-03-23T07:30:47;23.20;;;12.93;;
67508;SDS011;54354;44.724;11.284;2023-03-23T07:33:12;18.67;;;11.98;;
67508;SDS011;54354;44.724;11.284;2023-03-23T07:35:39;15.85;;;11.30;;
67508;SDS011;54354;44.724;11.284;2023-03-23T07:38:11;14.43;;;11.05;;
67508;SDS011;54354;44.724;11.284;2023-03-23T07:40:37;16.35;;;10.35;;
67508;SDS011;54354;44.724;11.284;2023-03-23T07:43:09;14.77;;;9.88;;
67508;SDS011;54354;44.724;11.284;2023-03-23T07:46:00;13.90;;;9.55;;
67508;SDS011;54354;44.724;11.284;2023-03-23T07:48:35;12.25;;;9.45;;
67508;SDS011;54354;44.724;11.284;2023-03-23T07:51:01;15.35;;;8.70;;
67508;SDS011;54354;44.724;11.284;2023-03-23T07:53:29;14.25;;;8.63;;
67508;SDS011;54354;44.724;11.284;2023-03-23T07:56:12;17.80;;;11.27;;
67508;SDS011;54354;44.724;11.284;2023-03-23T07:58:51;17.60;;;10.65;;
67508;SDS011;54354;44.724;11.284;2023-03-23T08:01:16;16.50;;;10.27;;
67508;SDS011;54354;44.724;11.284;2023-03-23T08:03:55;21.15;;;13.10;;
67508;SDS011;54354;44.724;11.284;2023-03-23T08:06:51;24.15;;;14.38;;
67508;SDS011;54354;44.724;11.284;2023-03-23T08:09:40;20.08;;;14.00;;
67508;SDS011;54354;44.724;11.284;2023-03-23T08:12:26;25.60;;;16.23;;
67508;SDS011;54354;44.724;11.284;2023-03-23T08:15:03;24.13;;;16.23;;
67508;SDS011;54354;44.724;11.284;2023-03-23T08:17:50;24.77;;;16.23;;
67508;SDS011;54354;44.724;11.284;2023-03-23T08:22:59;28.83;;;19.40;;
67508;SDS011;54354;44.724;11.284;2023-03-23T08:26:00;31.33;;;20.35;;
67508;SDS011;54354;44.724;11.284;2023-03-23T08:29:04;32.58;;;20.65;;
67508;SDS011;54354;44.724;11.284;2023-03-23T08:31:51;31.50;;;21.73;;
67508;SDS011;54354;44.724;11.284;2023-03-23T08:34:46;30.65;;;21.08;;
67508;SDS011;54354;44.724;11.284;2023-03-23T08:37:35;32.58;;;21.30;;
67508;SDS011;54354;44.724;11.284;2023-03-23T08:40:30;31.40;;;20.83;;
67508;SDS011;54354;44.724;11.284;2023-03-23T08:43:18;33.22;;;21.08;;
67508;SDS011;54354;44.724;11.284;2023-03-23T08:46:16;29.92;;;18.05;;
67508;SDS011;54354;44.724;11.284;2023-03-23T08:49:06;33.15;;;21.33;;
67508;SDS011;54354;44.724;11.284;2023-03-23T08:51:40;29.73;;;21.40;;
67508;SDS011;54354;44.724;11.284;2023-03-23T08:54:27;29.27;;;19.58;;
67508;SDS011;54354;44.724;11.284;2023-03-23T08:57:17;30.55;;;20.83;;
67508;SDS011;54354;44.724;11.284;2023-03-23T09:00:06;32.60;;;23.15;;
67508;SDS011;54354;44.724;11.284;2023-03-23T09:03:07;33.05;;;22.23;;
67508;SDS011;54354;44.724;11.284;2023-03-23T09:05:53;27.90;;;19.55;;
67508;SDS011;54354;44.724;11.284;2023-03-23T09:08:22;31.33;;;21.92;;
67508;SDS011;54354;44.724;11.284;2023-03-23T09:10:48;31.05;;;19.25;;
67508;SDS011;54354;44.724;11.284;2023-03-23T09:13:15;33.30;;;20.45;;
67508;SDS011;54354;44.724;11.284;2023-03-23T09:15:40;26.45;;;19.33;;
67508;SDS011;54354;44.724;11.284;2023-03-23T09:18:06;32.45;;;21.48;;
67508;SDS011;54354;44.724;11.284;2023-03-23T09:20:31;27.65;;;20.08;;
67508;SDS011;54354;44.724;11.284;2023-03-23T09:22:57;28.85;;;20.35;;
67508;SDS011;54354;44.724;11.284;2023-03-23T09:25:24;33.33;;;21.65;;
67508;SDS011;54354;44.724;11.284;2023-03-23T09:27:52;33.58;;;22.73;;
67508;SDS011;54354;44.724;11.284;2023-03-23T09:30:22;34.40;;;23.65;;
67508;SDS011;54354;44.724;11.284;2023-03-23T09:33:01;33.63;;;22.95;;
67508;SDS011;54354;44.724;11.284;2023-03-23T09:35:28;34.95;;;23.98;;
67508;SDS011;54354;44.724;11.284;2023-03-23T09:37:55;30.58;;;22.02;;
67508;SDS011;54354;44.724;11.284;2023-03-23T09:40:25;36.13;;;25.27;;
67508;SDS011;54354;44.724;11.284;2023-03-23T09:45:56;37.15;;;24.88;;
67508;SDS011;54354;44.724;11.284;2023-03-23T09:48:45;42.42;;;27.25;;
67508;SDS011;54354;44.724;11.284;2023-03-23T09:54:00;38.58;;;25.77;;
67508;SDS011;54354;44.724;11.284;2023-03-23T09:56:32;41.13;;;27.10;;
67508;SDS011;54354;44.724;11.284;2023-03-23T09:59:19;39.58;;;25.48;;
67508;SDS011;54354;44.724;11.284;2023-03-23T10:01:53;36.58;;;22.80;;
67508;SDS011;54354;44.724;11.284;2023-03-23T10:04:50;48.08;;;27.33;;
67508;SDS011;54354;44.724;11.284;2023-03-23T10:07:18;46.00;;;30.10;;
67508;SDS011;54354;44.724;11.284;2023-03-23T10:09:46;46.83;;;30.55;;
67508;SDS011;54354;44.724;11.284;2023-03-23T10:14:46;39.75;;;27.85;;
67508;SDS011;54354;44.724;11.284;2023-03-23T10:17:27;41.00;;;27.23;;
67508;SDS011;54354;44.724;11.284;2023-03-23T10:26:09;47.42;;;28.90;;
67508;SDS011;54354;44.724;11.284;2023-03-23T10:28:44;51.30;;;29.00;;
67508;SDS011;54354;44.724;11.284;2023-03-23T10:31:15;51.22;;;30.45;;
67508;SDS011;54354;44.724;11.284;2023-03-23T10:33:47;46.20;;;31.52;;
67508;SDS011;54354;44.724;11.284;2023-03-23T10:36:34;57.80;;;34.33;;
67508;SDS011;54354;44.724;11.284;2023-03-23T10:39:17;49.92;;;32.63;;
67508;SDS011;54354;44.724;11.284;2023-03-23T10:41:46;61.08;;;34.20;;
67508;SDS011;54354;44.724;11.284;2023-03-23T10:47:02;54.08;;;34.33;;
67508;SDS011;54354;44.724;11.284;2023-03-23T10:52:23;50.10;;;32.03;;
67508;SDS011;54354;44.724;11.284;2023-03-23T10:55:01;47.45;;;33.28;;
67508;SDS011;54354;44.724;11.284;2023-03-23T10:57:28;55.72;;;34.78;;
67508;SDS011;54354;44.724;11.284;2023-03-23T11:00:04;52.70;;;33.92;;
67508;SDS011;54354;44.724;11.284;2023-03-23T11:02:44;49.28;;;33.15;;
67508;SDS011;54354;44.724;11.284;2023-03-23T11:05:25;47.35;;;30.13;;
67508;SDS011;54354;44.724;11.284;2023-03-23T11:07:57;42.03;;;28.73;;
67508;SDS011;54354;44.724;11.284;2023-03-23T11:10:35;47.42;;;29.13;;
67508;SDS011;54354;44.724;11.284;2023-03-23T11:13:10;44.38;;;28.27;;
67508;SDS011;54354;44.724;11.284;2023-03-23T11:15:40;44.97;;;27.73;;
67508;SDS011;54354;44.724;11.284;2023-03-23T11:18:09;43.78;;;28.58;;
67508;SDS011;54354;44.724;11.284;2023-03-23T11:20:44;41.60;;;26.95;;
67508;SDS011;54354;44.724;11.284;2023-03-23T11:23:23;37.25;;;25.15;;
67508;SDS011;54354;44.724;11.284;2023-03-23T11:28:18;44.40;;;28.00;;
67508;SDS011;54354;44.724;11.284;2023-03-23T11:30:44;44.17;;;25.75;;
67508;SDS011;54354;44.724;11.284;2023-03-23T11:33:10;42.88;;;27.95;;
67508;SDS011;54354;44.724;11.284;2023-03-23T11:35:42;46.42;;;30.38;;
67508;SDS011;54354;44.724;11.284;2023-03-23T11:38:12;49.33;;;30.40;;
67508;SDS011;54354;44.724;11.284;2023-03-23T11:40:51;52.78;;;31.05;;
67508;SDS011;54354;44.724;11.284;2023-03-23T11:43:22;44.08;;;30.42;;
67508;SDS011;54354;44.724;11.284;2023-03-23T11:48:51;50.65;;;33.83;;
67508;SDS011;54354;44.724;11.284;2023-03-23T11:54:27;52.88;;;33.42;;
67508;SDS011;54354;44.724;11.284;2023-03-23T11:56:57;57.95;;;35.15;;
67508;SDS011;54354;44.724;11.284;2023-03-23T11:59:32;52.72;;;34.35;;
67508;SDS011;54354;44.724;11.284;2023-03-23T12:02:17;58.20;;;35.33;;
67508;SDS011;54354;44.724;11.284;2023-03-23T12:05:40;56.65;;;36.47;;
67508;SDS011;54354;44.724;11.284;2023-03-23T12:08:17;54.88;;;37.85;;
67508;SDS011;54354;44.724;11.284;2023-03-23T12:49:10;52.15;;;33.92;;
67508;SDS011;54354;44.724;11.284;2023-03-23T12:51:59;60.60;;;39.53;;
67508;SDS011;54354;44.724;11.284;2023-03-23T12:54:40;55.17;;;37.50;;
67508;SDS011;54354;44.724;11.284;2023-03-23T12:59:54;58.15;;;37.78;;
67508;SDS011;54354;44.724;11.284;2023-03-23T13:02:31;53.38;;;34.30;;
67508;SDS011;54354;44.724;11.284;2023-03-23T13:05:08;45.97;;;28.23;;
67508;SDS011;54354;44.724;11.284;2023-03-23T13:07:42;39.58;;;24.58;;
67508;SDS011;54354;44.724;11.284;2023-03-23T13:10:28;40.33;;;25.75;;
67508;SDS011;54354;44.724;11.284;2023-03-23T13:12:58;40.00;;;27.05;;
67508;SDS011;54354;44.724;11.284;2023-03-23T13:18:05;39.70;;;26.10;;
67508;SDS011;54354;44.724;11.284;2023-03-23T13:20:41;41.58;;;27.10;;
67508;SDS011;54354;44.724;11.284;2023-03-23T13:23:21;35.47;;;23.60;;
67508;SDS011;54354;44.724;11.284;2023-03-23T13:28:29;29.77;;;17.13;;
67508;SDS011;54354;44.724;11.284;2023-03-23T13:31:00;27.48;;;17.75;;
67508;SDS011;54354;44.724;11.284;2023-03-23T13:33:31;27.30;;;16.17;;
67508;SDS011;54354;44.724;11.284;2023-03-23T13:36:09;26.77;;;17.02;;
67508;SDS011;54354;44.724;11.284;2023-03-23T13:38:37;26.77;;;15.43;;
67508;SDS011;54354;44.724;11.284;2023-03-23T13:41:10;29.85;;;19.42;;
67508;SDS011;54354;44.724;11.284;2023-03-23T13:43:38;31.25;;;20.75;;
67508;SDS011;54354;44.724;11.284;2023-03-23T13:46:24;29.58;;;19.33;;
67508;SDS011;54354;44.724;11.284;2023-03-23T13:51:46;26.77;;;18.42;;
67508;SDS011;54354;44.724;11.284;2023-03-23T13:54:51;31.83;;;20.67;;
67508;SDS011;54354;44.724;11.284;2023-03-23T13:57:23;27.67;;;18.80;;
67508;SDS011;54354;44.724;11.284;2023-03-23T13:59:49;29.00;;;18.02;;
67508;SDS011;54354;44.724;11.284;2023-03-23T14:08:00;29.35;;;19.92;;
67508;SDS011;54354;44.724;11.284;2023-03-23T14:13:02;26.50;;;17.73;;
67508;SDS011;54354;44.724;11.284;2023-03-23T14:15:30;26.67;;;17.67;;
67508;SDS011;54354;44.724;11.284;2023-03-23T14:18:03;27.92;;;16.77;;
67508;SDS011;54354;44.724;11.284;2023-03-23T14:20:30;23.30;;;15.77;;
67508;SDS011;54354;44.724;11.284;2023-03-23T14:22:59;25.25;;;15.13;;
67508;SDS011;54354;44.724;11.284;2023-03-23T14:25:29;22.30;;;15.40;;
67508;SDS011;54354;44.724;11.284;2023-03-23T14:27:58;26.27;;;15.27;;
67508;SDS011;54354;44.724;11.284;2023-03-23T14:30:25;29.42;;;15.70;;
67508;SDS011;54354;44.724;11.284;2023-03-23T14:32:53;23.25;;;14.30;;
67508;SDS011;54354;44.724;11.284;2023-03-23T14:35:31;23.73;;;15.57;;
67508;SDS011;54354;44.724;11.284;2023-03-23T14:37:58;24.77;;;15.85;;
67508;SDS011;54354;44.724;11.284;2023-03-23T14:40:28;27.00;;;17.00;;
67508;SDS011;54354;44.724;11.284;2023-03-23T14:42:55;32.58;;;18.27;;
67508;SDS011;54354;44.724;11.284;2023-03-23T14:45:22;29.77;;;17.63;;
67508;SDS011;54354;44.724;11.284;2023-03-23T14:47:50;27.42;;;18.92;;
67508;SDS011;54354;44.724;11.284;2023-03-23T14:52:51;27.25;;;17.88;;
67508;SDS011;54354;44.724;11.284;2023-03-23T14:57:47;27.75;;;18.17;;
67508;SDS011;54354;44.724;11.284;2023-03-23T15:00:23;33.53;;;19.55;;
67508;SDS011;54354;44.724;11.284;2023-03-23T15:02:55;27.85;;;18.30;;
67508;SDS011;54354;44.724;11.284;2023-03-23T15:05:33;34.37;;;20.53;;
67508;SDS011;54354;44.724;11.284;2023-03-23T15:08:46;30.38;;;19.25;;
67508;SDS011;54354;44.724;11.284;2023-03-23T15:11:05;29.52;;;18.65;;
67508;SDS011;54354;44.724;11.284;2023-03-23T15:13:31;26.17;;;17.83;;
67508;SDS011;54354;44.724;11.284;2023-03-23T15:16:02;31.27;;;18.77;;
67508;SDS011;54354;44.724;11.284;2023-03-23T15:18:30;26.88;;;17.70;;
67508;SDS011;54354;44.724;11.284;2023-03-23T15:21:06;31.77;;;17.90;;
67508;SDS011;54354;44.724;11.284;2023-03-23T15:23:33;30.23;;;18.17;;
67508;SDS011;54354;44.724;11.284;2023-03-23T15:26:02;33.58;;;19.80;;
67508;SDS011;54354;44.724;11.284;2023-03-23T15:28:32;25.98;;;17.75;;
67508;SDS011;54354;44.724;11.284;2023-03-23T15:31:02;29.52;;;19.48;;
67508;SDS011;54354;44.724;11.284;2023-03-23T15:33:36;29.67;;;19.48;;
67508;SDS011;54354;44.724;11.284;2023-03-23T15:36:09;34.35;;;20.65;;
67508;SDS011;54354;44.724;11.284;2023-03-23T15:38:42;33.22;;;20.83;;
67508;SDS011;54354;44.724;11.284;2023-03-23T15:41:20;31.73;;;20.85;;
67508;SDS011;54354;44.724;11.284;2023-03-23T15:43:50;30.55;;;20.33;;
67508;SDS011;54354;44.724;11.284;2023-03-23T15:46:19;32.58;;;21.25;;
67508;SDS011;54354;44.724;11.284;2023-03-23T15:51:19;29.65;;;19.35;;
67508;SDS011;54354;44.724;11.284;2023-03-23T15:53:45;35.10;;;21.60;;
67508;SDS011;54354;44.724;11.284;2023-03-23T15:56:11;31.98;;;20.20;;
67508;SDS011;54354;44.724;11.284;2023-03-23T15:58:38;34.13;;;21.30;;
67508;SDS011;54354;44.724;11.284;2023-03-23T16:01:07;39.63;;;21.90;;
67508;SDS011;54354;44.724;11.284;2023-03-23T16:06:11;46.03;;;21.38;;
67508;SDS011;54354;44.724;11.284;2023-03-23T16:08:38;36.40;;;22.27;;
67508;SDS011;54354;44.724;11.284;2023-03-23T16:11:12;39.88;;;25.33;;
67508;SDS011;54354;44.724;11.284;2023-03-23T16:13:39;37.67;;;24.05;;
67508;SDS011;54354;44.724;11.284;2023-03-23T16:16:10;40.92;;;22.15;;
67508;SDS011;54354;44.724;11.284;2023-03-23T16:18:47;35.33;;;21.30;;
67508;SDS011;54354;44.724;11.284;2023-03-23T16:21:13;35.65;;;22.20;;
67508;SDS011;54354;44.724;11.284;2023-03-23T16:23:39;38.55;;;22.73;;
67508;SDS011;54354;44.724;11.284;2023-03-23T16:26:08;40.40;;;22.47;;
67508;SDS011;54354;44.724;11.284;2023-03-23T16:28:34;40.28;;;24.00;;
67508;SDS011;54354;44.724;11.284;2023-03-23T16:31:00;41.85;;;23.33;;
67508;SDS011;54354;44.724;11.284;2023-03-23T16:33:25;42.35;;;22.65;;
67508;SDS011;54354;44.724;11.284;2023-03-23T16:35:50;39.25;;;21.77;;
67508;SDS011;54354;44.724;11.284;2023-03-23T16:38:16;39.63;;;22.35;;
67508;SDS011;54354;44.724;11.284;2023-03-23T16:40:42;36.72;;;21.13;;
67508;SDS011;54354;44.724;11.284;2023-03-23T16:43:09;38.88;;;21.88;;